Time;durP1;ratioP1;P1;durP2;ratioP2;P2;SDS_P1;SDS_P2;PMS_P1;PMS_P2;Temp;Humidity;BMP_temperature;BMP_pressure;BME280_temperature;BME280_humidity;BME280_pressure;Samples;Min_cycle;Max_cycle;Signal;HPM_P1;HPM_P2
2021/07/05 00:01:12;;;;;;;7.20;6.20;;;20.50;71.40;;;;;;3533165;40;20065;-71
2021/07/05 00:03:37;;;;;;;8.07;7.25;;;20.50;71.80;;;;;;3536946;40;20049;-69
2021/07/05 00:06:04;;;;;;;7.82;7.05;;;20.50;71.80;;;;;;3532226;40;20027;-69
2021/07/05 00:08:30;;;;;;;8.52;7.00;;;20.50;71.70;;;;;;3531875;40;20038;-69
2021/07/05 00:10:56;;;;;;;8.02;7.13;;;20.50;71.20;;;;;;3536312;40;20757;-69
2021/07/05 00:13:22;;;;;;;7.32;6.63;;;20.50;71.30;;;;;;3536050;40;20022;-69
2021/07/05 00:15:49;;;;;;;7.80;7.00;;;20.50;71.70;;;;;;3533397;40;20047;-69
2021/07/05 00:18:14;;;;;;;8.18;7.20;;;20.50;71.40;;;;;;3540407;40;20042;-69
2021/07/05 00:20:44;;;;;;;7.35;6.65;;;20.50;71.80;;;;;;3536920;40;20964;-69
2021/07/05 00:23:10;;;;;;;7.43;6.72;;;20.50;72.20;;;;;;3531123;40;20418;-71
2021/07/05 00:25:36;;;;;;;8.57;6.78;;;20.50;72.00;;;;;;3534076;40;20155;-69
2021/07/05 00:28:04;;;;;;;7.82;7.10;;;20.50;72.10;;;;;;3537865;40;20327;-69
2021/07/05 00:30:30;;;;;;;8.30;6.78;;;20.50;71.30;;;;;;3533790;40;20555;-71
2021/07/05 00:32:55;;;;;;;8.27;7.47;;;20.50;70.80;;;;;;3537241;40;20748;-71
2021/07/05 00:35:23;;;;;;;7.47;6.68;;;20.50;70.80;;;;;;3532972;40;20026;-71
2021/07/05 00:37:49;;;;;;;8.18;7.20;;;20.40;70.50;;;;;;3533492;40;20042;-71
2021/07/05 00:40:17;;;;;;;8.07;7.28;;;20.40;70.90;;;;;;3531541;40;20031;-69
2021/07/05 00:42:44;;;;;;;7.55;6.80;;;20.40;71.00;;;;;;3535714;40;20067;-69
2021/07/05 00:45:10;;;;;;;7.28;6.57;;;20.30;71.80;;;;;;3530920;40;20069;-69
2021/07/05 00:47:37;;;;;;;12.55;7.60;;;20.30;71.40;;;;;;3534389;40;20049;-69
2021/07/05 00:50:05;;;;;;;8.88;7.38;;;20.30;71.70;;;;;;3529746;40;20140;-69
2021/07/05 00:52:32;;;;;;;7.88;6.93;;;20.30;71.80;;;;;;3532264;40;20079;-68
2021/07/05 00:54:57;;;;;;;8.13;7.32;;;20.20;72.00;;;;;;3530316;40;20097;-69
2021/07/05 00:57:24;;;;;;;8.00;7.20;;;20.30;72.50;;;;;;3529274;40;20431;-69
2021/07/05 00:59:52;;;;;;;8.73;7.82;;;20.20;72.50;;;;;;3531836;40;20069;-69
2021/07/05 01:02:19;;;;;;;8.85;7.13;;;20.20;72.60;;;;;;3533657;40;20049;-69
2021/07/05 01:04:45;;;;;;;8.80;7.85;;;20.20;72.40;;;;;;3535127;40;20043;-69
2021/07/05 01:07:11;;;;;;;8.52;7.22;;;20.10;72.40;;;;;;3531925;40;20292;-68
2021/07/05 01:09:37;;;;;;;8.55;7.68;;;20.10;72.70;;;;;;3536255;40;20031;-69
2021/07/05 01:12:04;;;;;;;8.15;7.35;;;20.10;72.40;;;;;;3532702;40;20026;-67
2021/07/05 01:14:30;;;;;;;8.68;7.82;;;20.00;72.30;;;;;;3535631;40;20120;-71
2021/07/05 01:16:57;;;;;;;7.85;7.07;;;20.10;72.40;;;;;;3533982;40;20043;-71
2021/07/05 01:19:23;;;;;;;9.30;8.05;;;20.00;73.20;;;;;;3529299;40;20068;-71
2021/07/05 01:21:49;;;;;;;8.68;7.78;;;19.90;73.10;;;;;;3533137;40;20621;-71
2021/07/05 01:24:15;;;;;;;8.70;7.90;;;19.90;73.10;;;;;;3532974;40;20084;-71
2021/07/05 01:26:41;;;;;;;8.63;7.72;;;19.90;73.30;;;;;;3533240;40;20094;-71
2021/07/05 01:29:06;;;;;;;8.95;7.90;;;19.90;73.60;;;;;;3530993;40;20047;-69
2021/07/05 01:31:34;;;;;;;11.52;8.48;;;19.90;73.90;;;;;;3533549;40;20031;-69
2021/07/05 01:34:01;;;;;;;8.93;8.07;;;19.80;73.70;;;;;;3532951;40;20026;-70
2021/07/05 01:36:26;;;;;;;9.77;8.30;;;19.80;73.80;;;;;;3532095;40;20015;-69
2021/07/05 01:38:52;;;;;;;8.77;7.97;;;19.80;74.60;;;;;;3534363;40;20045;-69
2021/07/05 01:41:19;;;;;;;8.85;7.95;;;19.80;74.70;;;;;;3529729;40;20720;-71
2021/07/05 01:43:45;;;;;;;10.73;7.97;;;19.70;74.60;;;;;;3522934;40;20026;-70
2021/07/05 01:46:12;;;;;;;9.38;8.38;;;19.70;75.20;;;;;;3521581;40;20046;-71
2021/07/05 01:48:37;;;;;;;9.65;8.65;;;19.70;75.00;;;;;;3533451;40;20027;-70
2021/07/05 01:51:03;;;;;;;9.57;8.27;;;19.70;75.10;;;;;;3533066;40;20335;-71
2021/07/05 01:53:30;;;;;;;9.10;8.00;;;19.70;74.80;;;;;;3529787;40;20907;-71
2021/07/05 01:55:55;;;;;;;9.48;8.48;;;19.70;75.30;;;;;;3532714;40;20486;-71
2021/07/05 01:58:22;;;;;;;9.43;8.45;;;19.70;75.60;;;;;;3530633;40;20042;-71
2021/07/05 02:00:48;;;;;;;9.98;8.80;;;19.60;75.70;;;;;;3531682;40;20777;-71
2021/07/05 02:03:15;;;;;;;10.18;9.05;;;19.60;75.90;;;;;;3529285;40;20435;-71
2021/07/05 02:05:41;;;;;;;9.82;8.82;;;19.50;76.30;;;;;;3532828;40;20043;-69
2021/07/05 02:08:07;;;;;;;10.07;8.73;;;19.50;76.40;;;;;;3533694;40;20042;-69
2021/07/05 02:10:36;;;;;;;9.25;8.25;;;19.50;76.40;;;;;;3534963;40;20030;-69
2021/07/05 02:13:09;;;;;;;10.00;8.35;;;19.40;76.50;;;;;;3531844;40;20039;-71
2021/07/05 02:15:35;;;;;;;11.00;9.90;;;19.40;76.70;;;;;;3535433;40;20316;-71
2021/07/05 02:18:01;;;;;;;11.20;8.75;;;19.40;77.10;;;;;;3529700;40;20053;-69
2021/07/05 02:20:27;;;;;;;11.13;9.45;;;19.40;77.20;;;;;;3534185;40;20130;-69
2021/07/05 02:22:54;;;;;;;8.98;8.13;;;19.40;77.00;;;;;;3531527;40;20035;-69
2021/07/05 02:25:26;;;;;;;11.07;9.90;;;19.40;76.90;;;;;;3532720;40;20066;-69
2021/07/05 02:27:52;;;;;;;9.57;8.68;;;19.40;77.20;;;;;;3532419;40;20097;-71
2021/07/05 02:30:20;;;;;;;9.35;8.45;;;19.30;77.60;;;;;;3532671;40;20698;-71
2021/07/05 02:32:46;;;;;;;12.48;9.32;;;19.30;78.00;;;;;;3519507;40;20031;-71
2021/07/05 02:35:15;;;;;;;10.05;8.95;;;19.20;78.20;;;;;;3533917;40;20054;-71
2021/07/05 02:37:42;;;;;;;9.82;8.82;;;19.20;78.40;;;;;;3528838;40;20030;-71
2021/07/05 02:40:11;;;;;;;12.93;8.70;;;19.20;78.60;;;;;;3531993;40;20042;-71
2021/07/05 02:42:37;;;;;;;9.50;8.60;;;19.20;78.70;;;;;;3535406;40;20051;-71
2021/07/05 02:45:36;;;;;;;9.88;8.80;;;19.30;78.70;;;;;;3530842;40;20043;-71
2021/07/05 02:48:11;;;;;;;10.00;9.00;;;19.30;78.90;;;;;;3532532;40;20423;-71
2021/07/05 02:50:38;;;;;;;10.40;9.32;;;19.30;78.80;;;;;;3535392;40;20051;-71
2021/07/05 02:53:06;;;;;;;10.65;9.13;;;19.30;78.70;;;;;;3534880;40;20936;-69
2021/07/05 02:55:32;;;;;;;10.20;9.10;;;19.20;78.60;;;;;;3531522;40;20046;-71
2021/07/05 02:57:58;;;;;;;10.35;9.27;;;19.20;78.80;;;;;;3534184;40;20705;-69
2021/07/05 03:00:26;;;;;;;9.48;8.57;;;19.20;79.10;;;;;;3534648;40;20046;-68
2021/07/05 03:02:52;;;;;;;10.20;9.13;;;19.20;79.60;;;;;;3533881;40;20047;-69
2021/07/05 03:05:19;;;;;;;10.65;9.30;;;19.20;79.80;;;;;;3528169;40;20684;-69
2021/07/05 03:07:45;;;;;;;11.30;9.40;;;19.20;79.80;;;;;;3532166;40;20320;-72
2021/07/05 03:10:14;;;;;;;12.13;8.85;;;19.30;80.00;;;;;;3530046;40;20686;-69
2021/07/05 03:12:40;;;;;;;9.70;8.70;;;19.40;79.80;;;;;;3530812;40;20054;-71
2021/07/05 03:15:11;;;;;;;10.40;9.25;;;19.40;79.90;;;;;;3532735;40;20112;-69
2021/07/05 03:17:37;;;;;;;13.73;9.55;;;19.40;80.10;;;;;;3530043;40;20034;-69
2021/07/05 03:20:12;;;;;;;10.07;9.07;;;19.40;80.00;;;;;;3530747;40;20054;-69
2021/07/05 03:22:38;;;;;;;9.73;8.73;;;19.40;79.90;;;;;;3530939;40;20040;-69
2021/07/05 03:25:07;;;;;;;10.95;8.98;;;19.40;80.00;;;;;;3531275;40;20039;-69
2021/07/05 03:27:33;;;;;;;9.98;8.77;;;19.40;80.40;;;;;;3532360;40;20034;-71
2021/07/05 03:29:58;;;;;;;9.30;8.40;;;19.40;80.70;;;;;;3528653;40;20134;-71
2021/07/05 03:32:24;;;;;;;10.10;8.60;;;19.40;80.80;;;;;;3532461;40;20049;-71
2021/07/05 03:34:50;;;;;;;12.10;8.82;;;19.50;81.00;;;;;;3531625;40;20039;-71
2021/07/05 03:37:17;;;;;;;12.43;8.88;;;19.50;81.10;;;;;;3528992;40;20041;-70
2021/07/05 03:39:43;;;;;;;10.15;9.15;;;19.60;81.10;;;;;;3534373;40;20692;-71
2021/07/05 03:42:08;;;;;;;9.48;8.30;;;19.60;80.70;;;;;;3528359;40;20039;-71
2021/07/05 03:44:34;;;;;;;10.73;8.98;;;19.60;80.60;;;;;;3527216;40;20663;-71
2021/07/05 03:47:00;;;;;;;9.75;8.85;;;19.60;80.40;;;;;;3528789;40;20039;-71
2021/07/05 03:49:25;;;;;;;9.15;8.25;;;19.70;80.20;;;;;;3529312;40;20030;-71
2021/07/05 03:51:52;;;;;;;10.10;9.10;;;19.80;80.20;;;;;;3528491;40;20038;-69
2021/07/05 03:54:18;;;;;;;8.98;8.07;;;19.80;79.90;;;;;;3527575;40;20439;-69
2021/07/05 03:56:44;;;;;;;11.98;8.55;;;19.90;79.30;;;;;;3530514;40;20027;-69
2021/07/05 03:59:10;;;;;;;10.88;8.35;;;19.90;78.90;;;;;;3534084;40;20038;-69
2021/07/05 04:01:36;;;;;;;9.18;8.27;;;20.00;78.50;;;;;;3527453;40;20046;-69
2021/07/05 04:04:02;;;;;;;9.57;8.30;;;20.00;78.10;;;;;;3533405;40;20098;-69
2021/07/05 04:06:28;;;;;;;9.18;7.40;;;20.00;78.40;;;;;;3527206;40;20035;-69
2021/07/05 04:08:56;;;;;;;9.73;8.73;;;20.10;78.70;;;;;;3532057;40;20132;-69
2021/07/05 04:11:22;;;;;;;8.70;7.80;;;20.10;78.30;;;;;;3528887;40;20039;-69
2021/07/05 04:13:48;;;;;;;9.80;7.40;;;20.20;78.00;;;;;;3530374;40;20117;-69
2021/07/05 04:16:14;;;;;;;10.65;7.53;;;20.20;78.50;;;;;;3533060;40;20134;-67
2021/07/05 04:18:40;;;;;;;8.35;7.53;;;20.30;77.80;;;;;;3536050;40;20042;-69
2021/07/05 04:21:06;;;;;;;9.02;7.50;;;20.40;78.20;;;;;;3533113;40;20399;-69
2021/07/05 04:23:32;;;;;;;8.15;7.35;;;20.40;77.60;;;;;;3532750;40;20480;-69
2021/07/05 04:25:59;;;;;;;8.85;7.50;;;20.40;77.40;;;;;;3532225;40;20869;-69
2021/07/05 04:28:25;;;;;;;10.18;7.05;;;20.50;77.50;;;;;;3533940;40;20053;-69
2021/07/05 04:30:51;;;;;;;9.88;7.45;;;20.50;78.10;;;;;;3533122;40;20038;-68
2021/07/05 04:33:17;;;;;;;9.18;7.80;;;20.50;77.80;;;;;;3532496;40;20042;-69
2021/07/05 04:35:43;;;;;;;8.43;7.40;;;20.50;77.80;;;;;;3531481;40;20069;-69
2021/07/05 04:38:08;;;;;;;10.52;7.35;;;20.50;77.30;;;;;;3534025;40;20035;-69
2021/07/05 04:40:36;;;;;;;8.23;7.43;;;20.60;76.90;;;;;;3532095;40;20042;-69
2021/07/05 04:43:03;;;;;;;10.70;7.35;;;20.70;76.30;;;;;;3530232;40;20035;-69
2021/07/05 04:45:30;;;;;;;7.50;6.47;;;20.70;76.40;;;;;;3534345;40;20031;-69
2021/07/05 04:47:59;;;;;;;7.75;6.97;;;20.90;76.50;;;;;;3532418;40;20047;-69
2021/07/05 04:50:24;;;;;;;7.82;6.88;;;20.90;76.20;;;;;;3532053;40;20050;-71
2021/07/05 04:52:50;;;;;;;8.27;7.47;;;20.90;75.80;;;;;;3531665;40;20039;-69
2021/07/05 04:55:18;;;;;;;8.25;7.03;;;21.00;75.60;;;;;;3535133;40;20046;-69
2021/07/05 04:57:45;;;;;;;7.65;6.40;;;21.10;75.50;;;;;;3530119;40;20046;-69
2021/07/05 05:00:15;;;;;;;11.23;7.30;;;21.20;75.40;;;;;;3534490;40;20442;-69
2021/07/05 05:02:42;;;;;;;10.07;7.40;;;21.20;75.40;;;;;;3532393;40;20019;-69
2021/07/05 05:05:08;;;;;;;7.43;6.60;;;21.30;75.00;;;;;;3532105;40;20026;-69
2021/07/05 05:07:34;;;;;;;8.20;6.82;;;21.30;74.70;;;;;;3532604;40;20045;-69
2021/07/05 05:10:01;;;;;;;7.80;6.78;;;21.40;74.50;;;;;;3531548;40;20030;-69
2021/07/05 05:12:28;;;;;;;7.43;6.70;;;21.40;75.00;;;;;;3530829;40;20054;-69
2021/07/05 05:14:55;;;;;;;7.85;7.05;;;21.40;74.70;;;;;;3532542;40;20065;-69
2021/07/05 05:17:21;;;;;;;8.25;7.13;;;21.40;75.10;;;;;;3531640;40;20106;-69
2021/07/05 05:19:47;;;;;;;7.97;6.57;;;21.50;75.50;;;;;;3530370;40;20045;-69
2021/07/05 05:22:12;;;;;;;6.15;5.55;;;21.60;74.50;;;;;;3533994;40;20043;-69
2021/07/05 05:24:38;;;;;;;6.72;6.07;;;21.80;73.90;;;;;;3527788;40;20042;-69
2021/07/05 05:27:04;;;;;;;7.32;5.75;;;21.90;74.30;;;;;;3532466;40;20600;-69
2021/07/05 05:29:29;;;;;;;6.60;5.90;;;22.00;73.40;;;;;;3529666;40;20132;-69
2021/07/05 05:31:55;;;;;;;6.90;5.63;;;22.00;73.50;;;;;;3531213;40;20034;-69
2021/07/05 05:34:21;;;;;;;6.85;5.97;;;22.00;73.00;;;;;;3533747;40;20123;-69
2021/07/05 05:36:47;;;;;;;6.45;5.85;;;22.00;73.50;;;;;;3530875;40;20066;-69
2021/07/05 05:39:13;;;;;;;5.82;5.30;;;22.00;73.30;;;;;;3535322;40;20135;-69
2021/07/05 05:41:38;;;;;;;6.00;5.40;;;22.00;73.30;;;;;;3530942;40;20808;-69
2021/07/05 05:44:04;;;;;;;5.28;4.70;;;22.00;73.60;;;;;;3533794;40;20054;-70
2021/07/05 05:46:32;;;;;;;5.85;5.28;;;22.10;73.50;;;;;;3535911;40;20022;-69
2021/07/05 05:48:59;;;;;;;5.53;4.90;;;22.00;73.40;;;;;;3528518;40;20034;-69
2021/07/05 05:51:31;;;;;;;5.68;5.15;;;22.10;73.50;;;;;;3530645;40;20055;-69
2021/07/05 05:54:01;;;;;;;5.40;4.82;;;22.00;73.20;;;;;;3532848;40;20498;-69
2021/07/05 05:56:28;;;;;;;6.80;4.78;;;22.00;72.80;;;;;;3534557;40;20031;-69
2021/07/05 05:58:59;;;;;;;4.57;4.18;;;22.00;72.70;;;;;;3534831;40;20315;-69
2021/07/05 06:01:25;;;;;;;5.13;4.28;;;21.90;72.50;;;;;;3532108;40;20057;-69
2021/07/05 06:03:51;;;;;;;4.30;3.90;;;21.90;72.50;;;;;;3530631;40;20401;-69
2021/07/05 06:06:17;;;;;;;4.80;4.30;;;21.80;72.90;;;;;;3532728;40;20066;-69
2021/07/05 06:08:43;;;;;;;5.00;4.32;;;21.80;73.60;;;;;;3535714;40;20030;-69
2021/07/05 06:11:09;;;;;;;6.05;5.13;;;21.70;74.80;;;;;;3531240;40;20034;-68
2021/07/05 06:13:34;;;;;;;6.03;4.88;;;21.70;75.70;;;;;;3533890;40;20030;-69
2021/07/05 06:16:00;;;;;;;4.60;4.10;;;21.60;76.10;;;;;;3534394;40;20049;-69
2021/07/05 06:18:26;;;;;;;10.02;4.78;;;21.60;77.00;;;;;;3529190;40;20050;-69
2021/07/05 06:20:51;;;;;;;5.20;4.43;;;21.50;76.50;;;;;;3535081;40;20045;-69
2021/07/05 06:25:45;;;;;;;7.63;5.03;;;21.60;77.40;;;;;;3529435;40;20046;-69
2021/07/05 06:28:11;;;;;;;5.55;4.10;;;21.50;77.90;;;;;;3530614;40;20043;-66
2021/07/05 06:30:37;;;;;;;5.53;3.83;;;21.50;77.90;;;;;;3532390;40;20127;-68
2021/07/05 06:33:03;;;;;;;4.82;4.32;;;21.40;77.90;;;;;;3534807;40;20026;-69
2021/07/05 06:35:29;;;;;;;4.47;4.07;;;21.40;77.60;;;;;;3532552;40;20059;-67
2021/07/05 06:37:55;;;;;;;4.75;4.25;;;21.30;78.10;;;;;;3530867;40;20039;-68
2021/07/05 06:40:21;;;;;;;8.18;3.72;;;21.30;78.60;;;;;;3530285;40;20078;-68
2021/07/05 06:42:47;;;;;;;6.60;3.97;;;21.30;79.30;;;;;;3529605;40;20660;-68
2021/07/05 06:45:12;;;;;;;5.07;4.00;;;21.30;79.40;;;;;;3531208;40;20125;-68
2021/07/05 06:47:38;;;;;;;5.72;3.90;;;21.40;79.60;;;;;;3535902;40;20315;-71
2021/07/05 06:50:06;;;;;;;7.35;4.68;;;21.40;80.30;;;;;;3532893;40;20038;-68
2021/07/05 06:52:33;;;;;;;4.53;4.05;;;21.40;79.60;;;;;;3533304;40;20034;-68
2021/07/05 06:55:00;;;;;;;6.82;4.28;;;21.50;79.60;;;;;;3530786;40;20494;-68
2021/07/05 06:57:29;;;;;;;6.15;4.35;;;21.50;79.60;;;;;;3527753;40;20046;-70
2021/07/05 07:00:00;;;;;;;5.65;4.93;;;21.50;80.00;;;;;;3534075;40;20034;-68
2021/07/05 07:02:26;;;;;;;5.28;4.20;;;21.60;80.40;;;;;;3523083;40;20136;-68
2021/07/05 07:04:52;;;;;;;4.70;4.20;;;21.60;80.40;;;;;;3530320;40;20038;-68
2021/07/05 07:07:18;;;;;;;5.10;4.35;;;21.70;80.00;;;;;;3530693;40;20033;-68
2021/07/05 07:09:43;;;;;;;7.15;5.85;;;21.80;79.50;;;;;;3532379;40;20034;-68
2021/07/05 07:12:09;;;;;;;5.82;4.80;;;21.80;79.30;;;;;;3533234;40;20147;-65
2021/07/05 07:14:35;;;;;;;5.53;4.28;;;21.90;78.70;;;;;;3531525;40;20054;-68
2021/07/05 07:17:07;;;;;;;5.00;4.50;;;21.90;77.40;;;;;;3533671;40;20087;-68
2021/07/05 07:19:33;;;;;;;5.25;4.22;;;22.00;77.70;;;;;;3534284;40;20030;-69
2021/07/05 07:22:03;;;;;;;4.90;4.40;;;22.00;77.30;;;;;;3530836;40;20027;-70
2021/07/05 07:24:31;;;;;;;5.55;4.70;;;21.90;77.80;;;;;;3531912;40;20144;-70
2021/07/05 07:26:57;;;;;;;4.97;4.25;;;21.90;77.50;;;;;;3533505;40;20031;-69
2021/07/05 07:29:23;;;;;;;7.30;4.40;;;21.90;77.70;;;;;;3520783;40;20042;-71
2021/07/05 07:31:49;;;;;;;5.40;4.57;;;22.00;78.20;;;;;;3532529;40;20035;-69
2021/07/05 07:34:15;;;;;;;6.15;4.03;;;22.00;77.90;;;;;;3531130;40;20039;-69
2021/07/05 07:36:41;;;;;;;6.63;4.57;;;22.10;77.30;;;;;;3529600;40;20031;-69
2021/07/05 07:39:14;;;;;;;7.20;5.40;;;22.20;77.10;;;;;;3534315;40;20087;-72
2021/07/05 07:41:40;;;;;;;5.90;5.30;;;22.30;77.10;;;;;;3530104;40;20029;-72
2021/07/05 07:44:06;;;;;;;6.70;4.63;;;22.40;76.50;;;;;;3523248;40;20034;-69
2021/07/05 07:46:32;;;;;;;5.35;4.57;;;22.40;74.40;;;;;;3531153;40;20470;-69
2021/07/05 07:48:57;;;;;;;7.28;4.57;;;22.40;75.10;;;;;;3527821;40;20042;-68
2021/07/05 07:51:23;;;;;;;5.15;4.32;;;22.40;75.20;;;;;;3528114;40;20243;-69
2021/07/05 07:53:49;;;;;;;4.82;4.38;;;22.30;76.00;;;;;;3529644;40;20796;-69
2021/07/05 07:56:16;;;;;;;7.97;4.57;;;22.40;76.00;;;;;;3531485;40;20043;-69
2021/07/05 07:58:42;;;;;;;4.35;3.95;;;22.50;75.40;;;;;;3531115;40;20039;-69
2021/07/05 08:01:08;;;;;;;4.88;4.35;;;22.40;75.20;;;;;;3528384;40;20038;-69
2021/07/05 08:03:34;;;;;;;4.72;4.22;;;22.40;74.50;;;;;;3533071;40;20704;-69
2021/07/05 08:06:00;;;;;;;4.78;3.70;;;22.40;74.70;;;;;;3530397;40;20038;-69
2021/07/05 08:08:26;;;;;;;4.47;3.80;;;22.40;75.10;;;;;;3534022;40;20057;-68
2021/07/05 08:10:52;;;;;;;6.18;5.35;;;22.40;74.90;;;;;;3531361;40;20671;-69
2021/07/05 08:13:18;;;;;;;5.20;3.80;;;22.40;75.20;;;;;;3530921;40;20148;-69
2021/07/05 08:15:43;;;;;;;5.35;4.10;;;22.30;75.50;;;;;;3532465;40;20106;-69
2021/07/05 08:18:09;;;;;;;4.28;3.65;;;22.30;75.20;;;;;;3532826;40;20030;-69
2021/07/05 08:20:35;;;;;;;4.70;3.60;;;22.30;76.00;;;;;;3532582;40;20108;-69
2021/07/05 08:23:02;;;;;;;4.13;3.63;;;22.30;76.00;;;;;;3532545;40;20027;-69
2021/07/05 08:25:28;;;;;;;7.18;3.58;;;22.30;76.00;;;;;;3533026;40;20072;-69
2021/07/05 08:27:54;;;;;;;4.43;3.72;;;22.20;76.00;;;;;;3532646;40;20320;-69
2021/07/05 08:30:21;;;;;;;6.85;4.05;;;22.20;77.00;;;;;;3530790;40;20050;-69
2021/07/05 08:32:49;;;;;;;3.65;3.35;;;22.10;77.00;;;;;;3533941;40;20407;-69
2021/07/05 08:35:15;;;;;;;4.50;3.55;;;22.10;77.10;;;;;;3530679;40;20066;-68
2021/07/05 08:37:41;;;;;;;6.10;4.18;;;22.20;77.80;;;;;;3532319;40;20071;-69
2021/07/05 08:40:08;;;;;;;5.00;4.50;;;22.20;77.10;;;;;;3533682;40;20043;-69
2021/07/05 08:42:35;;;;;;;11.48;8.35;;;22.20;77.20;;;;;;3530861;40;20050;-69
2021/07/05 08:45:03;;;;;;;6.38;5.65;;;22.30;77.10;;;;;;3531025;40;20031;-68
2021/07/05 08:47:34;;;;;;;7.75;5.78;;;22.30;76.40;;;;;;3533299;40;20042;-69
2021/07/05 08:50:00;;;;;;;7.47;4.30;;;22.30;77.30;;;;;;3533418;40;20038;-69
2021/07/05 08:52:26;;;;;;;6.15;4.35;;;22.30;77.30;;;;;;3532744;40;20045;-69
2021/07/05 08:54:52;;;;;;;4.90;4.30;;;22.40;76.00;;;;;;3531987;40;20358;-70
2021/07/05 08:57:27;;;;;;;4.47;4.03;;;22.30;76.60;;;;;;3532684;40;20568;-69
2021/07/05 08:59:54;;;;;;;5.53;4.10;;;22.30;77.40;;;;;;3532112;40;20324;-69
2021/07/05 09:02:20;;;;;;;9.90;4.90;;;22.40;76.80;;;;;;3530097;40;20038;-69
2021/07/05 09:04:47;;;;;;;6.15;4.10;;;22.50;76.70;;;;;;3531591;40;20037;-69
2021/07/05 09:07:13;;;;;;;5.57;4.65;;;22.60;76.60;;;;;;3530187;40;20108;-69
2021/07/05 09:10:00;;;;;;;6.53;4.97;;;22.70;76.00;;;;;;3531896;40;20086;-69
2021/07/05 09:12:26;;;;;;;7.68;5.03;;;22.80;74.30;;;;;;3529913;40;20042;-69
2021/07/05 09:15:07;;;;;;;5.68;4.05;;;22.70;73.40;;;;;;3532286;40;20324;-69
2021/07/05 09:17:38;;;;;;;4.45;3.70;;;22.60;73.80;;;;;;3529789;40;20039;-70
2021/07/05 09:20:19;;;;;;;5.15;3.38;;;22.60;73.70;;;;;;3531971;40;20030;-69
2021/07/05 09:23:11;;;;;;;3.70;3.15;;;22.50;73.90;;;;;;3534496;40;20030;-67
2021/07/05 09:25:41;;;;;;;7.47;3.10;;;22.50;74.30;;;;;;3533703;40;20031;-68
2021/07/05 09:28:08;;;;;;;4.90;2.95;;;22.50;75.00;;;;;;3531785;40;20123;-68
2021/07/05 09:30:46;;;;;;;3.80;3.10;;;22.40;74.60;;;;;;3533210;40;20031;-68
2021/07/05 09:33:23;;;;;;;3.90;3.20;;;22.30;75.60;;;;;;3530439;40;20057;-68
2021/07/05 09:36:00;;;;;;;3.70;2.95;;;22.30;75.10;;;;;;3533216;40;20049;-68
2021/07/05 09:38:43;;;;;;;3.20;2.70;;;22.40;75.40;;;;;;3531423;40;20047;-68
2021/07/05 09:41:32;;;;;;;3.33;2.78;;;22.40;75.90;;;;;;3533550;40;20102;-68
2021/07/05 09:44:08;;;;;;;3.58;2.80;;;22.40;77.00;;;;;;3532332;40;20126;-68
2021/07/05 09:46:43;;;;;;;3.10;2.80;;;22.50;76.40;;;;;;3532252;40;20054;-68
2021/07/05 09:49:12;;;;;;;3.45;2.97;;;22.40;76.80;;;;;;3535413;40;20031;-68
2021/07/05 09:51:44;;;;;;;3.30;3.00;;;22.40;77.20;;;;;;3528620;40;20039;-68
2021/07/05 09:54:14;;;;;;;4.32;3.38;;;22.50;77.30;;;;;;3532050;40;20237;-68
2021/07/05 09:56:40;;;;;;;2.55;2.35;;;22.50;77.00;;;;;;3533780;40;20199;-68
2021/07/05 09:59:23;;;;;;;2.92;2.63;;;22.70;76.80;;;;;;3533499;40;20056;-68
2021/07/05 10:01:51;;;;;;;3.17;2.88;;;22.90;76.20;;;;;;3529667;40;20077;-68
2021/07/05 10:04:27;;;;;;;2.78;2.50;;;23.10;75.70;;;;;;3529937;40;20165;-68
2021/07/05 10:06:54;;;;;;;4.30;3.10;;;23.30;74.50;;;;;;3532795;40;20083;-68
2021/07/05 10:09:36;;;;;;;3.90;3.45;;;23.40;73.80;;;;;;3533860;40;20031;-68
2021/07/05 10:12:21;;;;;;;4.90;3.65;;;23.40;73.60;;;;;;3532117;40;20046;-68
2021/07/05 10:14:58;;;;;;;4.80;3.70;;;23.60;73.20;;;;;;3533690;40;20042;-68
2021/07/05 10:17:25;;;;;;;3.70;3.25;;;23.70;71.80;;;;;;3536687;40;20872;-68
2021/07/05 10:19:51;;;;;;;3.92;3.53;;;23.80;71.00;;;;;;3531451;40;20042;-69
2021/07/05 10:22:17;;;;;;;3.70;3.20;;;23.90;70.70;;;;;;3531225;40;20079;-67
2021/07/05 10:24:45;;;;;;;4.60;3.65;;;24.00;68.80;;;;;;3531634;40;20030;-67
2021/07/05 10:27:11;;;;;;;3.88;3.50;;;23.90;70.20;;;;;;3533521;40;20128;-67
2021/07/05 10:29:38;;;;;;;3.78;3.47;;;23.90;70.30;;;;;;3532086;40;20034;-68
2021/07/05 10:32:05;;;;;;;4.60;3.80;;;23.90;70.30;;;;;;3530085;40;20035;-67
2021/07/05 10:34:30;;;;;;;3.83;3.53;;;23.90;70.30;;;;;;3531731;40;20119;-67
2021/07/05 10:36:58;;;;;;;5.85;3.80;;;24.00;70.50;;;;;;3530621;40;20383;-67
2021/07/05 10:39:26;;;;;;;5.13;3.78;;;24.10;70.70;;;;;;3531897;40;20053;-67
2021/07/05 10:41:51;;;;;;;6.68;4.18;;;24.30;68.80;;;;;;3531457;40;20038;-67
2021/07/05 10:44:20;;;;;;;4.65;3.72;;;24.10;68.50;;;;;;3531316;40;20208;-67
2021/07/05 10:46:54;;;;;;;4.28;3.88;;;24.10;69.40;;;;;;3532363;40;20047;-67
2021/07/05 10:49:39;;;;;;;5.22;3.78;;;24.20;69.00;;;;;;3529478;40;20135;-67
2021/07/05 10:52:13;;;;;;;5.18;3.17;;;24.20;68.10;;;;;;3531087;40;20168;-69
2021/07/05 10:54:42;;;;;;;3.85;3.53;;;24.20;67.60;;;;;;3533118;40;20102;-67
2021/07/05 10:57:08;;;;;;;6.55;5.45;;;24.00;68.60;;;;;;3531458;40;20054;-67
2021/07/05 10:59:36;;;;;;;6.15;4.00;;;23.90;69.20;;;;;;3531412;40;20043;-67
2021/07/05 11:02:32;;;;;;;8.18;5.72;;;23.90;69.50;;;;;;3531265;40;20038;-67
2021/07/05 11:04:58;;;;;;;4.82;3.40;;;23.90;70.20;;;;;;3533002;40;20123;-67
2021/07/05 11:07:42;;;;;;;3.83;3.40;;;24.00;70.00;;;;;;3530891;40;20060;-66
2021/07/05 11:10:19;;;;;;;4.90;4.05;;;24.20;69.00;;;;;;3531522;40;20323;-67
2021/07/05 11:12:59;;;;;;;7.38;4.30;;;24.30;68.80;;;;;;3523970;40;20030;-68
2021/07/05 11:15:44;;;;;;;5.80;3.90;;;24.40;68.80;;;;;;3530490;40;20434;-67
2021/07/05 11:18:10;;;;;;;4.68;3.60;;;24.60;67.40;;;;;;3531755;40;20031;-67
2021/07/05 11:20:38;;;;;;;5.80;3.70;;;24.70;68.20;;;;;;3530073;40;20112;-68
2021/07/05 11:23:04;;;;;;;3.90;3.55;;;24.90;66.90;;;;;;3530543;40;20032;-67
2021/07/05 11:25:30;;;;;;;4.15;3.55;;;25.00;64.40;;;;;;3530635;40;20126;-68
2021/07/05 11:27:59;;;;;;;4.68;3.40;;;25.00;65.70;;;;;;3531263;40;20437;-70
2021/07/05 11:30:38;;;;;;;5.65;3.38;;;25.00;65.60;;;;;;3531881;40;20791;-68
2021/07/05 11:33:10;;;;;;;3.90;3.13;;;25.00;64.50;;;;;;3532593;40;20101;-68
2021/07/05 11:35:47;;;;;;;6.85;3.25;;;24.80;64.00;;;;;;3531610;40;20136;-68
2021/07/05 11:38:19;;;;;;;4.47;3.78;;;24.60;65.00;;;;;;3523360;40;20642;-68
2021/07/05 11:40:50;;;;;;;3.33;3.03;;;24.40;66.00;;;;;;3530121;40;20514;-69
2021/07/05 11:43:37;;;;;;;3.33;3.03;;;24.20;66.80;;;;;;3533163;40;20034;-68
2021/07/05 11:46:03;;;;;;;3.17;2.88;;;24.20;66.10;;;;;;3531904;40;20113;-68
2021/07/05 11:48:55;;;;;;;3.80;3.17;;;24.30;67.60;;;;;;3531882;40;20022;-68
2021/07/05 11:51:25;;;;;;;3.50;3.20;;;24.40;66.10;;;;;;3527584;40;20054;-68
2021/07/05 11:54:02;;;;;;;4.53;3.22;;;24.50;65.50;;;;;;3535045;40;20038;-71
2021/07/05 11:56:37;;;;;;;4.90;3.40;;;24.50;64.70;;;;;;3532495;40;20042;-69
2021/07/05 11:59:05;;;;;;;;;;;24.50;64.50;;;;;;3533735;40;20096;-68
2021/07/05 12:01:32;;;;;;;3.10;2.80;;;24.40;64.90;;;;;;3531608;40;20037;-68
2021/07/05 12:04:00;;;;;;;2.95;2.70;;;24.50;64.70;;;;;;3530309;40;20771;-69
2021/07/05 12:06:26;;;;;;;3.22;3.03;;;24.50;65.50;;;;;;3531552;40;20341;-69
2021/07/05 12:08:58;;;;;;;4.10;3.00;;;24.80;65.50;;;;;;3531376;40;20031;-69
2021/07/05 12:11:36;;;;;;;3.08;2.78;;;25.00;64.20;;;;;;3530950;40;20128;-69
2021/07/05 12:14:21;;;;;;;3.97;3.58;;;25.20;62.20;;;;;;3532284;40;20368;-69
2021/07/05 12:16:58;;;;;;;4.28;3.08;;;25.50;61.30;;;;;;3521876;40;20086;-69
2021/07/05 12:19:28;;;;;;;4.10;3.53;;;25.60;60.20;;;;;;3531484;40;20525;-69
2021/07/05 12:21:56;;;;;;;3.90;3.13;;;25.60;60.20;;;;;;3529615;40;20067;-69
2021/07/05 12:24:25;;;;;;;2.83;2.60;;;25.60;60.90;;;;;;3532543;40;20046;-69
2021/07/05 12:27:18;;;;;;;2.58;2.38;;;25.60;59.70;;;;;;3532622;40;20023;-68
2021/07/05 12:29:55;;;;;;;4.68;3.35;;;25.60;58.20;;;;;;3529931;40;20156;-69
2021/07/05 12:32:25;;;;;;;2.78;2.55;;;25.50;60.50;;;;;;3530197;40;20039;-69
2021/07/05 12:35:11;;;;;;;4.10;3.40;;;25.50;58.80;;;;;;3531932;40;20518;-69
2021/07/05 12:37:40;;;;;;;7.10;5.60;;;25.40;61.20;;;;;;3530261;40;20672;-69
2021/07/05 12:40:14;;;;;;;3.72;2.65;;;25.50;61.70;;;;;;3533622;40;20087;-69
2021/07/05 12:42:40;;;;;;;9.63;4.10;;;25.70;60.20;;;;;;3531665;40;20038;-69
2021/07/05 12:45:11;;;;;;;3.83;2.60;;;25.80;58.80;;;;;;3531529;40;20304;-69
2021/07/05 12:47:54;;;;;;;2.78;2.58;;;25.90;57.90;;;;;;3532436;40;20039;-69
2021/07/05 12:50:26;;;;;;;3.05;2.50;;;26.00;58.10;;;;;;3532367;40;20046;-69
2021/07/05 12:53:10;;;;;;;3.10;2.70;;;25.90;58.60;;;;;;3531719;40;20378;-69
2021/07/05 12:55:40;;;;;;;4.22;2.53;;;25.70;58.70;;;;;;3521940;40;20036;-69